sensor_id;sensor_type;location;lat;lon;timestamp;P1;durP1;ratioP1;P2;durP2;ratioP2
57465;SDS011;67033;44.984;20.068;2023-04-06T00:01:10;22.23;;;15.02;;
57465;SDS011;67033;44.984;20.068;2023-04-06T00:03:36;21.83;;;15.02;;
57465;SDS011;67033;44.984;20.068;2023-04-06T00:06:03;22.48;;;15.20;;
57465;SDS011;67033;44.984;20.068;2023-04-06T00:08:29;25.42;;;15.43;;
57465;SDS011;67033;44.984;20.068;2023-04-06T00:10:55;20.60;;;14.55;;
57465;SDS011;67033;44.984;20.068;2023-04-06T00:13:21;27.35;;;16.58;;
57465;SDS011;67033;44.984;20.068;2023-04-06T00:15:48;25.48;;;15.02;;
57465;SDS011;67033;44.984;20.068;2023-04-06T00:18:14;22.88;;;15.73;;
57465;SDS011;67033;44.984;20.068;2023-04-06T00:20:40;28.33;;;15.63;;
57465;SDS011;67033;44.984;20.068;2023-04-06T00:23:06;25.50;;;16.30;;
57465;SDS011;67033;44.984;20.068;2023-04-06T00:25:32;26.23;;;16.42;;
57465;SDS011;67033;44.984;20.068;2023-04-06T00:27:59;25.00;;;15.90;;
57465;SDS011;67033;44.984;20.068;2023-04-06T00:30:25;25.33;;;15.85;;
57465;SDS011;67033;44.984;20.068;2023-04-06T00:32:51;23.75;;;16.02;;
57465;SDS011;67033;44.984;20.068;2023-04-06T00:35:17;26.80;;;16.50;;
57465;SDS011;67033;44.984;20.068;2023-04-06T00:37:45;25.58;;;16.73;;
57465;SDS011;67033;44.984;20.068;2023-04-06T00:40:13;25.90;;;16.58;;
57465;SDS011;67033;44.984;20.068;2023-04-06T00:42:39;25.48;;;15.65;;
57465;SDS011;67033;44.984;20.068;2023-04-06T00:45:05;21.60;;;15.40;;
57465;SDS011;67033;44.984;20.068;2023-04-06T00:47:32;26.85;;;16.33;;
57465;SDS011;67033;44.984;20.068;2023-04-06T00:49:58;27.77;;;16.58;;
57465;SDS011;67033;44.984;20.068;2023-04-06T00:52:25;24.02;;;15.60;;
57465;SDS011;67033;44.984;20.068;2023-04-06T00:54:51;26.58;;;16.27;;
57465;SDS011;67033;44.984;20.068;2023-04-06T00:57:17;32.65;;;17.40;;
57465;SDS011;67033;44.984;20.068;2023-04-06T00:59:44;32.80;;;17.00;;
57465;SDS011;67033;44.984;20.068;2023-04-06T01:02:10;30.63;;;17.80;;
57465;SDS011;67033;44.984;20.068;2023-04-06T01:04:36;33.33;;;17.88;;
57465;SDS011;67033;44.984;20.068;2023-04-06T01:07:02;28.50;;;16.60;;
57465;SDS011;67033;44.984;20.068;2023-04-06T01:09:29;27.02;;;16.27;;
57465;SDS011;67033;44.984;20.068;2023-04-06T01:11:58;26.65;;;16.15;;
57465;SDS011;67033;44.984;20.068;2023-04-06T01:14:24;31.33;;;16.70;;
57465;SDS011;67033;44.984;20.068;2023-04-06T01:16:51;28.38;;;16.60;;
57465;SDS011;67033;44.984;20.068;2023-04-06T01:19:17;25.50;;;14.43;;
57465;SDS011;67033;44.984;20.068;2023-04-06T01:21:44;24.85;;;15.32;;
57465;SDS011;67033;44.984;20.068;2023-04-06T01:24:10;23.52;;;15.35;;
57465;SDS011;67033;44.984;20.068;2023-04-06T01:26:37;22.85;;;14.70;;
57465;SDS011;67033;44.984;20.068;2023-04-06T01:29:03;20.73;;;14.38;;
57465;SDS011;67033;44.984;20.068;2023-04-06T01:31:30;25.50;;;14.25;;
57465;SDS011;67033;44.984;20.068;2023-04-06T01:33:56;21.42;;;14.65;;
57465;SDS011;67033;44.984;20.068;2023-04-06T01:36:22;23.58;;;15.65;;
57465;SDS011;67033;44.984;20.068;2023-04-06T01:38:49;25.55;;;16.17;;
57465;SDS011;67033;44.984;20.068;2023-04-06T01:41:15;25.25;;;16.08;;
57465;SDS011;67033;44.984;20.068;2023-04-06T01:43:41;25.02;;;17.45;;
57465;SDS011;67033;44.984;20.068;2023-04-06T01:46:08;29.83;;;17.55;;
57465;SDS011;67033;44.984;20.068;2023-04-06T01:48:34;28.42;;;18.92;;
57465;SDS011;67033;44.984;20.068;2023-04-06T01:51:01;27.58;;;18.33;;
57465;SDS011;67033;44.984;20.068;2023-04-06T01:53:27;28.65;;;18.77;;
57465;SDS011;67033;44.984;20.068;2023-04-06T01:55:54;28.40;;;18.45;;
57465;SDS011;67033;44.984;20.068;2023-04-06T01:58:20;29.52;;;19.05;;
57465;SDS011;67033;44.984;20.068;2023-04-06T02:00:46;26.35;;;18.10;;
57465;SDS011;67033;44.984;20.068;2023-04-06T02:03:12;25.23;;;18.05;;
57465;SDS011;67033;44.984;20.068;2023-04-06T02:05:40;26.30;;;18.45;;
57465;SDS011;67033;44.984;20.068;2023-04-06T02:08:06;23.30;;;16.77;;
57465;SDS011;67033;44.984;20.068;2023-04-06T02:10:33;25.10;;;16.52;;
57465;SDS011;67033;44.984;20.068;2023-04-06T02:13:00;25.73;;;17.05;;
57465;SDS011;67033;44.984;20.068;2023-04-06T02:15:26;26.45;;;18.00;;
57465;SDS011;67033;44.984;20.068;2023-04-06T02:17:53;24.77;;;18.27;;
57465;SDS011;67033;44.984;20.068;2023-04-06T02:20:19;27.13;;;17.00;;
57465;SDS011;67033;44.984;20.068;2023-04-06T02:22:45;22.85;;;15.60;;
57465;SDS011;67033;44.984;20.068;2023-04-06T02:25:12;24.27;;;15.77;;
57465;SDS011;67033;44.984;20.068;2023-04-06T02:27:38;23.95;;;15.32;;
57465;SDS011;67033;44.984;20.068;2023-04-06T02:30:05;19.58;;;13.52;;
57465;SDS011;67033;44.984;20.068;2023-04-06T02:32:31;19.65;;;13.00;;
57465;SDS011;67033;44.984;20.068;2023-04-06T02:34:57;19.95;;;13.25;;
57465;SDS011;67033;44.984;20.068;2023-04-06T02:37:23;18.10;;;12.63;;
57465;SDS011;67033;44.984;20.068;2023-04-06T02:39:50;20.30;;;12.95;;
57465;SDS011;67033;44.984;20.068;2023-04-06T02:42:16;21.30;;;13.85;;
57465;SDS011;67033;44.984;20.068;2023-04-06T02:44:42;20.60;;;13.68;;
57465;SDS011;67033;44.984;20.068;2023-04-06T02:47:09;21.15;;;13.65;;
57465;SDS011;67033;44.984;20.068;2023-04-06T02:49:35;21.33;;;13.27;;
57465;SDS011;67033;44.984;20.068;2023-04-06T02:52:02;23.40;;;14.05;;
57465;SDS011;67033;44.984;20.068;2023-04-06T02:54:29;22.80;;;13.57;;
57465;SDS011;67033;44.984;20.068;2023-04-06T02:56:55;23.55;;;13.82;;
57465;SDS011;67033;44.984;20.068;2023-04-06T02:59:21;21.30;;;13.77;;
57465;SDS011;67033;44.984;20.068;2023-04-06T03:01:47;28.40;;;14.88;;
57465;SDS011;67033;44.984;20.068;2023-04-06T03:04:13;20.25;;;13.57;;
57465;SDS011;67033;44.984;20.068;2023-04-06T03:06:40;20.52;;;14.25;;
57465;SDS011;67033;44.984;20.068;2023-04-06T03:09:06;25.77;;;13.95;;
57465;SDS011;67033;44.984;20.068;2023-04-06T03:11:33;22.55;;;14.63;;
57465;SDS011;67033;44.984;20.068;2023-04-06T03:13:59;24.75;;;14.77;;
57465;SDS011;67033;44.984;20.068;2023-04-06T03:16:25;22.17;;;14.63;;
57465;SDS011;67033;44.984;20.068;2023-04-06T03:18:52;23.23;;;14.80;;
57465;SDS011;67033;44.984;20.068;2023-04-06T03:21:18;33.08;;;15.65;;
57465;SDS011;67033;44.984;20.068;2023-04-06T03:23:46;25.45;;;14.90;;
57465;SDS011;67033;44.984;20.068;2023-04-06T03:26:14;26.20;;;14.93;;
57465;SDS011;67033;44.984;20.068;2023-04-06T03:28:41;30.42;;;15.65;;
57465;SDS011;67033;44.984;20.068;2023-04-06T03:31:07;30.23;;;16.02;;
57465;SDS011;67033;44.984;20.068;2023-04-06T03:33:33;25.75;;;15.35;;
57465;SDS011;67033;44.984;20.068;2023-04-06T03:35:59;24.20;;;16.08;;
57465;SDS011;67033;44.984;20.068;2023-04-06T03:38:26;24.90;;;16.48;;
57465;SDS011;67033;44.984;20.068;2023-04-06T03:40:52;30.25;;;14.95;;
57465;SDS011;67033;44.984;20.068;2023-04-06T03:43:18;23.75;;;15.02;;
57465;SDS011;67033;44.984;20.068;2023-04-06T03:45:44;27.58;;;16.05;;
57465;SDS011;67033;44.984;20.068;2023-04-06T03:48:11;23.92;;;14.90;;
57465;SDS011;67033;44.984;20.068;2023-04-06T03:50:37;29.10;;;15.57;;
57465;SDS011;67033;44.984;20.068;2023-04-06T03:53:03;27.10;;;15.60;;
57465;SDS011;67033;44.984;20.068;2023-04-06T03:55:30;26.77;;;15.43;;
57465;SDS011;67033;44.984;20.068;2023-04-06T03:57:56;26.70;;;16.15;;
57465;SDS011;67033;44.984;20.068;2023-04-06T04:00:22;28.27;;;16.52;;
57465;SDS011;67033;44.984;20.068;2023-04-06T04:02:48;23.77;;;15.18;;
57465;SDS011;67033;44.984;20.068;2023-04-06T04:05:15;24.45;;;15.05;;
57465;SDS011;67033;44.984;20.068;2023-04-06T04:07:42;25.83;;;16.50;;
57465;SDS011;67033;44.984;20.068;2023-04-06T04:10:08;30.98;;;16.02;;
57465;SDS011;67033;44.984;20.068;2023-04-06T04:12:34;28.90;;;15.73;;
57465;SDS011;67033;44.984;20.068;2023-04-06T04:15:01;25.75;;;16.20;;
57465;SDS011;67033;44.984;20.068;2023-04-06T04:17:28;25.50;;;15.80;;
57465;SDS011;67033;44.984;20.068;2023-04-06T04:19:54;27.83;;;16.45;;
57465;SDS011;67033;44.984;20.068;2023-04-06T04:22:20;29.55;;;16.25;;
57465;SDS011;67033;44.984;20.068;2023-04-06T04:24:47;27.02;;;16.13;;
57465;SDS011;67033;44.984;20.068;2023-04-06T04:27:13;27.77;;;16.17;;
57465;SDS011;67033;44.984;20.068;2023-04-06T04:29:39;30.00;;;16.80;;
57465;SDS011;67033;44.984;20.068;2023-04-06T04:32:05;29.05;;;16.70;;
57465;SDS011;67033;44.984;20.068;2023-04-06T04:34:32;30.23;;;17.20;;
57465;SDS011;67033;44.984;20.068;2023-04-06T04:36:58;28.40;;;16.85;;
57465;SDS011;67033;44.984;20.068;2023-04-06T04:39:24;25.95;;;16.17;;
57465;SDS011;67033;44.984;20.068;2023-04-06T04:41:51;26.33;;;16.60;;
57465;SDS011;67033;44.984;20.068;2023-04-06T04:44:17;27.50;;;16.52;;
57465;SDS011;67033;44.984;20.068;2023-04-06T04:46:43;33.67;;;16.02;;
57465;SDS011;67033;44.984;20.068;2023-04-06T04:49:10;31.55;;;16.35;;
57465;SDS011;67033;44.984;20.068;2023-04-06T04:51:36;23.75;;;16.30;;
57465;SDS011;67033;44.984;20.068;2023-04-06T04:54:02;24.65;;;16.10;;
57465;SDS011;67033;44.984;20.068;2023-04-06T04:56:28;26.80;;;16.50;;
57465;SDS011;67033;44.984;20.068;2023-04-06T04:58:55;35.15;;;17.60;;
57465;SDS011;67033;44.984;20.068;2023-04-06T05:01:21;31.27;;;15.95;;
57465;SDS011;67033;44.984;20.068;2023-04-06T05:03:47;30.17;;;17.15;;
57465;SDS011;67033;44.984;20.068;2023-04-06T05:06:13;31.52;;;17.92;;
57465;SDS011;67033;44.984;20.068;2023-04-06T05:08:40;31.08;;;17.92;;
57465;SDS011;67033;44.984;20.068;2023-04-06T05:11:06;27.50;;;17.35;;
57465;SDS011;67033;44.984;20.068;2023-04-06T05:13:32;24.95;;;16.58;;
57465;SDS011;67033;44.984;20.068;2023-04-06T05:15:58;27.95;;;16.95;;
57465;SDS011;67033;44.984;20.068;2023-04-06T05:18:25;31.70;;;17.33;;
57465;SDS011;67033;44.984;20.068;2023-04-06T05:20:51;26.30;;;16.98;;
57465;SDS011;67033;44.984;20.068;2023-04-06T05:23:17;26.65;;;16.38;;
57465;SDS011;67033;44.984;20.068;2023-04-06T05:25:43;27.83;;;16.08;;
57465;SDS011;67033;44.984;20.068;2023-04-06T05:28:10;27.45;;;16.05;;
57465;SDS011;67033;44.984;20.068;2023-04-06T05:30:39;26.45;;;16.80;;
57465;SDS011;67033;44.984;20.068;2023-04-06T05:33:05;23.48;;;16.13;;
57465;SDS011;67033;44.984;20.068;2023-04-06T05:35:31;30.73;;;16.30;;
57465;SDS011;67033;44.984;20.068;2023-04-06T05:37:58;26.95;;;16.60;;
57465;SDS011;67033;44.984;20.068;2023-04-06T05:40:24;25.52;;;17.02;;
57465;SDS011;67033;44.984;20.068;2023-04-06T05:42:51;25.83;;;16.15;;
57465;SDS011;67033;44.984;20.068;2023-04-06T05:45:17;29.63;;;16.15;;
57465;SDS011;67033;44.984;20.068;2023-04-06T05:47:44;32.53;;;18.13;;
57465;SDS011;67033;44.984;20.068;2023-04-06T05:50:11;32.83;;;17.15;;
57465;SDS011;67033;44.984;20.068;2023-04-06T05:52:38;29.02;;;18.10;;
57465;SDS011;67033;44.984;20.068;2023-04-06T05:55:06;35.72;;;17.00;;
57465;SDS011;67033;44.984;20.068;2023-04-06T05:57:32;25.88;;;16.15;;
57465;SDS011;67033;44.984;20.068;2023-04-06T05:59:59;25.35;;;16.73;;
57465;SDS011;67033;44.984;20.068;2023-04-06T06:02:25;28.08;;;16.23;;
57465;SDS011;67033;44.984;20.068;2023-04-06T06:04:51;25.88;;;17.42;;
57465;SDS011;67033;44.984;20.068;2023-04-06T06:07:17;25.10;;;14.80;;
57465;SDS011;67033;44.984;20.068;2023-04-06T06:09:43;28.50;;;16.58;;
57465;SDS011;67033;44.984;20.068;2023-04-06T06:12:10;27.95;;;15.05;;
57465;SDS011;67033;44.984;20.068;2023-04-06T06:14:36;29.10;;;15.82;;
57465;SDS011;67033;44.984;20.068;2023-04-06T06:17:02;22.38;;;14.55;;
57465;SDS011;67033;44.984;20.068;2023-04-06T06:19:28;19.60;;;13.73;;
57465;SDS011;67033;44.984;20.068;2023-04-06T06:21:54;24.23;;;13.90;;
57465;SDS011;67033;44.984;20.068;2023-04-06T06:24:21;23.00;;;13.57;;
57465;SDS011;67033;44.984;20.068;2023-04-06T06:26:47;22.30;;;13.02;;
57465;SDS011;67033;44.984;20.068;2023-04-06T06:29:14;16.58;;;12.32;;
57465;SDS011;67033;44.984;20.068;2023-04-06T06:31:40;23.13;;;12.95;;
57465;SDS011;67033;44.984;20.068;2023-04-06T06:34:06;17.15;;;12.32;;
57465;SDS011;67033;44.984;20.068;2023-04-06T06:36:32;18.05;;;12.52;;
57465;SDS011;67033;44.984;20.068;2023-04-06T06:39:00;19.45;;;11.80;;
57465;SDS011;67033;44.984;20.068;2023-04-06T06:41:28;19.00;;;12.40;;
57465;SDS011;67033;44.984;20.068;2023-04-06T06:43:54;18.80;;;13.15;;
57465;SDS011;67033;44.984;20.068;2023-04-06T06:46:21;21.45;;;13.30;;
57465;SDS011;67033;44.984;20.068;2023-04-06T06:48:47;23.13;;;12.52;;
57465;SDS011;67033;44.984;20.068;2023-04-06T06:51:14;17.58;;;11.48;;
57465;SDS011;67033;44.984;20.068;2023-04-06T06:53:40;23.90;;;11.77;;
57465;SDS011;67033;44.984;20.068;2023-04-06T06:56:06;22.98;;;11.45;;
57465;SDS011;67033;44.984;20.068;2023-04-06T06:58:33;16.98;;;11.07;;
57465;SDS011;67033;44.984;20.068;2023-04-06T07:00:59;18.42;;;11.77;;
57465;SDS011;67033;44.984;20.068;2023-04-06T07:03:25;23.13;;;13.85;;
57465;SDS011;67033;44.984;20.068;2023-04-06T07:05:52;17.52;;;11.77;;
57465;SDS011;67033;44.984;20.068;2023-04-06T07:08:22;20.00;;;12.10;;
57465;SDS011;67033;44.984;20.068;2023-04-06T07:10:49;20.67;;;13.30;;
57465;SDS011;67033;44.984;20.068;2023-04-06T07:13:17;19.38;;;12.85;;
57465;SDS011;67033;44.984;20.068;2023-04-06T07:15:48;18.67;;;13.15;;
57465;SDS011;67033;44.984;20.068;2023-04-06T07:18:14;19.23;;;12.45;;
57465;SDS011;67033;44.984;20.068;2023-04-06T07:20:40;24.70;;;13.10;;
57465;SDS011;67033;44.984;20.068;2023-04-06T07:23:07;24.75;;;13.70;;
57465;SDS011;67033;44.984;20.068;2023-04-06T07:25:33;19.10;;;12.32;;
57465;SDS011;67033;44.984;20.068;2023-04-06T07:27:59;19.08;;;11.60;;
57465;SDS011;67033;44.984;20.068;2023-04-06T07:30:26;18.23;;;11.52;;
57465;SDS011;67033;44.984;20.068;2023-04-06T07:32:52;16.02;;;11.75;;
57465;SDS011;67033;44.984;20.068;2023-04-06T07:35:21;18.38;;;12.07;;
57465;SDS011;67033;44.984;20.068;2023-04-06T07:37:47;19.67;;;12.38;;
57465;SDS011;67033;44.984;20.068;2023-04-06T07:40:13;17.08;;;10.65;;
57465;SDS011;67033;44.984;20.068;2023-04-06T07:42:39;18.73;;;12.10;;
57465;SDS011;67033;44.984;20.068;2023-04-06T07:45:06;20.25;;;11.38;;
57465;SDS011;67033;44.984;20.068;2023-04-06T07:47:32;15.25;;;10.90;;
57465;SDS011;67033;44.984;20.068;2023-04-06T07:49:59;16.40;;;10.60;;
57465;SDS011;67033;44.984;20.068;2023-04-06T07:52:25;17.25;;;11.00;;
57465;SDS011;67033;44.984;20.068;2023-04-06T07:54:52;20.98;;;10.82;;
57465;SDS011;67033;44.984;20.068;2023-04-06T07:57:18;13.52;;;9.82;;
57465;SDS011;67033;44.984;20.068;2023-04-06T07:59:44;19.23;;;10.82;;
57465;SDS011;67033;44.984;20.068;2023-04-06T08:02:11;16.20;;;10.52;;
57465;SDS011;67033;44.984;20.068;2023-04-06T08:04:37;16.73;;;11.10;;
57465;SDS011;67033;44.984;20.068;2023-04-06T08:07:03;21.50;;;12.52;;
57465;SDS011;67033;44.984;20.068;2023-04-06T08:09:29;16.88;;;10.93;;
57465;SDS011;67033;44.984;20.068;2023-04-06T08:11:58;25.10;;;12.20;;
57465;SDS011;67033;44.984;20.068;2023-04-06T08:14:23;22.73;;;13.88;;
57465;SDS011;67033;44.984;20.068;2023-04-06T08:16:49;20.33;;;13.35;;
57465;SDS011;67033;44.984;20.068;2023-04-06T08:19:16;23.23;;;12.52;;
57465;SDS011;67033;44.984;20.068;2023-04-06T08:21:44;17.17;;;11.95;;
57465;SDS011;67033;44.984;20.068;2023-04-06T08:24:11;22.80;;;13.57;;
57465;SDS011;67033;44.984;20.068;2023-04-06T08:26:37;18.95;;;11.80;;
57465;SDS011;67033;44.984;20.068;2023-04-06T08:29:03;18.88;;;12.25;;
57465;SDS011;67033;44.984;20.068;2023-04-06T08:31:33;18.88;;;11.30;;
57465;SDS011;67033;44.984;20.068;2023-04-06T08:34:00;17.15;;;11.52;;
57465;SDS011;67033;44.984;20.068;2023-04-06T08:36:26;13.48;;;9.80;;
57465;SDS011;67033;44.984;20.068;2023-04-06T08:38:53;15.98;;;10.25;;
57465;SDS011;67033;44.984;20.068;2023-04-06T08:41:19;14.65;;;10.27;;
57465;SDS011;67033;44.984;20.068;2023-04-06T08:43:49;15.57;;;9.75;;
57465;SDS011;67033;44.984;20.068;2023-04-06T08:46:23;14.55;;;9.57;;
57465;SDS011;67033;44.984;20.068;2023-04-06T08:48:59;13.32;;;9.32;;
57465;SDS011;67033;44.984;20.068;2023-04-06T08:51:26;17.85;;;10.30;;
57465;SDS011;67033;44.984;20.068;2023-04-06T08:53:54;14.50;;;9.35;;
57465;SDS011;67033;44.984;20.068;2023-04-06T08:56:24;13.93;;;9.43;;
57465;SDS011;67033;44.984;20.068;2023-04-06T08:58:52;16.00;;;9.90;;
57465;SDS011;67033;44.984;20.068;2023-04-06T09:01:26;13.75;;;9.23;;
57465;SDS011;67033;44.984;20.068;2023-04-06T09:03:56;12.90;;;8.32;;
57465;SDS011;67033;44.984;20.068;2023-04-06T09:06:24;12.63;;;8.73;;
57465;SDS011;67033;44.984;20.068;2023-04-06T09:08:53;13.70;;;9.00;;
57465;SDS011;67033;44.984;20.068;2023-04-06T09:11:20;15.98;;;9.98;;
57465;SDS011;67033;44.984;20.068;2023-04-06T09:13:53;17.98;;;9.70;;
57465;SDS011;67033;44.984;20.068;2023-04-06T09:16:20;14.65;;;9.63;;
57465;SDS011;67033;44.984;20.068;2023-04-06T09:18:48;18.38;;;10.45;;
57465;SDS011;67033;44.984;20.068;2023-04-06T09:21:18;15.65;;;9.35;;
57465;SDS011;67033;44.984;20.068;2023-04-06T09:23:44;16.77;;;8.50;;
57465;SDS011;67033;44.984;20.068;2023-04-06T09:26:11;17.70;;;10.45;;
57465;SDS011;67033;44.984;20.068;2023-04-06T09:28:49;17.88;;;10.38;;
57465;SDS011;67033;44.984;20.068;2023-04-06T09:31:17;16.35;;;8.82;;
57465;SDS011;67033;44.984;20.068;2023-04-06T09:33:51;18.08;;;9.50;;
57465;SDS011;67033;44.984;20.068;2023-04-06T09:36:18;15.18;;;10.07;;
57465;SDS011;67033;44.984;20.068;2023-04-06T09:38:55;16.30;;;9.98;;
57465;SDS011;67033;44.984;20.068;2023-04-06T09:41:25;17.13;;;11.10;;
57465;SDS011;67033;44.984;20.068;2023-04-06T09:44:01;15.93;;;9.60;;
57465;SDS011;67033;44.984;20.068;2023-04-06T09:46:30;17.73;;;10.93;;
57465;SDS011;67033;44.984;20.068;2023-04-06T09:48:58;25.95;;;11.93;;
57465;SDS011;67033;44.984;20.068;2023-04-06T09:51:31;22.52;;;11.85;;
57465;SDS011;67033;44.984;20.068;2023-04-06T09:54:11;19.67;;;10.85;;
57465;SDS011;67033;44.984;20.068;2023-04-06T09:56:47;19.13;;;11.75;;
57465;SDS011;67033;44.984;20.068;2023-04-06T10:02:34;26.75;;;14.05;;
57465;SDS011;67033;44.984;20.068;2023-04-06T10:07:53;19.73;;;10.13;;
57465;SDS011;67033;44.984;20.068;2023-04-06T10:10:22;20.40;;;12.05;;
57465;SDS011;67033;44.984;20.068;2023-04-06T10:12:48;19.42;;;12.25;;
57465;SDS011;67033;44.984;20.068;2023-04-06T10:15:15;21.13;;;13.00;;
57465;SDS011;67033;44.984;20.068;2023-04-06T10:17:42;15.15;;;11.38;;
57465;SDS011;67033;44.984;20.068;2023-04-06T10:20:10;24.92;;;13.10;;
57465;SDS011;67033;44.984;20.068;2023-04-06T10:23:19;18.15;;;11.55;;
57465;SDS011;67033;44.984;20.068;2023-04-06T10:26:00;17.70;;;11.00;;
57465;SDS011;67033;44.984;20.068;2023-04-06T10:28:33;19.40;;;11.88;;
57465;SDS011;67033;44.984;20.068;2023-04-06T10:31:06;18.30;;;11.93;;
57465;SDS011;67033;44.984;20.068;2023-04-06T10:33:33;18.05;;;11.98;;
57465;SDS011;67033;44.984;20.068;2023-04-06T10:36:21;21.08;;;12.00;;
57465;SDS011;67033;44.984;20.068;2023-04-06T10:38:53;24.30;;;12.75;;
57465;SDS011;67033;44.984;20.068;2023-04-06T10:41:36;21.25;;;13.13;;
57465;SDS011;67033;44.984;20.068;2023-04-06T10:44:17;19.60;;;11.95;;
57465;SDS011;67033;44.984;20.068;2023-04-06T10:46:53;17.00;;;11.38;;
57465;SDS011;67033;44.984;20.068;2023-04-06T10:49:26;17.58;;;11.65;;
57465;SDS011;67033;44.984;20.068;2023-04-06T10:51:56;20.13;;;11.75;;
57465;SDS011;67033;44.984;20.068;2023-04-06T10:54:23;15.55;;;11.30;;
57465;SDS011;67033;44.984;20.068;2023-04-06T10:59:20;21.92;;;11.68;;
57465;SDS011;67033;44.984;20.068;2023-04-06T11:01:46;21.58;;;11.88;;
57465;SDS011;67033;44.984;20.068;2023-04-06T11:04:15;19.60;;;11.30;;
57465;SDS011;67033;44.984;20.068;2023-04-06T11:06:45;21.25;;;11.23;;
57465;SDS011;67033;44.984;20.068;2023-04-06T11:09:27;18.02;;;10.57;;
57465;SDS011;67033;44.984;20.068;2023-04-06T11:11:56;15.38;;;9.27;;
57465;SDS011;67033;44.984;20.068;2023-04-06T11:14:23;28.02;;;13.60;;
57465;SDS011;67033;44.984;20.068;2023-04-06T11:16:49;24.15;;;12.10;;
57465;SDS011;67033;44.984;20.068;2023-04-06T11:19:16;39.22;;;18.42;;
57465;SDS011;67033;44.984;20.068;2023-04-06T11:21:46;30.88;;;16.45;;
57465;SDS011;67033;44.984;20.068;2023-04-06T11:24:13;53.65;;;19.50;;
57465;SDS011;67033;44.984;20.068;2023-04-06T11:26:44;24.98;;;13.00;;
57465;SDS011;67033;44.984;20.068;2023-04-06T11:29:12;16.00;;;9.00;;
57465;SDS011;67033;44.984;20.068;2023-04-06T11:31:40;46.35;;;18.10;;
57465;SDS011;67033;44.984;20.068;2023-04-06T11:34:23;18.85;;;10.02;;
57465;SDS011;67033;44.984;20.068;2023-04-06T11:37:03;20.85;;;9.48;;
57465;SDS011;67033;44.984;20.068;2023-04-06T11:39:38;16.40;;;9.02;;
57465;SDS011;67033;44.984;20.068;2023-04-06T11:42:22;15.43;;;8.63;;
57465;SDS011;67033;44.984;20.068;2023-04-06T11:44:50;11.80;;;8.20;;
57465;SDS011;67033;44.984;20.068;2023-04-06T11:47:18;15.80;;;9.23;;
57465;SDS011;67033;44.984;20.068;2023-04-06T11:49:45;12.20;;;8.23;;
57465;SDS011;67033;44.984;20.068;2023-04-06T11:54:49;14.02;;;9.25;;
57465;SDS011;67033;44.984;20.068;2023-04-06T11:57:17;10.60;;;6.45;;
57465;SDS011;67033;44.984;20.068;2023-04-06T11:59:44;23.15;;;11.85;;
57465;SDS011;67033;44.984;20.068;2023-04-06T12:02:10;15.05;;;9.50;;
57465;SDS011;67033;44.984;20.068;2023-04-06T12:04:36;10.70;;;6.80;;
57465;SDS011;67033;44.984;20.068;2023-04-06T12:07:03;13.60;;;7.97;;
57465;SDS011;67033;44.984;20.068;2023-04-06T12:09:29;12.55;;;7.30;;
57465;SDS011;67033;44.984;20.068;2023-04-06T12:11:56;13.98;;;7.03;;
57465;SDS011;67033;44.984;20.068;2023-04-06T12:14:22;11.00;;;7.85;;
57465;SDS011;67033;44.984;20.068;2023-04-06T12:16:49;10.68;;;6.97;;
57465;SDS011;67033;44.984;20.068;2023-04-06T12:19:14;12.05;;;6.97;;
57465;SDS011;67033;44.984;20.068;2023-04-06T12:21:41;12.57;;;6.85;;
57465;SDS011;67033;44.984;20.068;2023-04-06T12:24:07;11.50;;;7.07;;
57465;SDS011;67033;44.984;20.068;2023-04-06T12:26:33;10.93;;;7.53;;
57465;SDS011;67033;44.984;20.068;2023-04-06T12:29:00;10.35;;;7.25;;
57465;SDS011;67033;44.984;20.068;2023-04-06T12:31:33;14.90;;;7.63;;
57465;SDS011;67033;44.984;20.068;2023-04-06T12:34:00;11.05;;;7.43;;
57465;SDS011;67033;44.984;20.068;2023-04-06T12:36:28;11.45;;;7.30;;
57465;SDS011;67033;44.984;20.068;2023-04-06T12:38:54;17.45;;;8.57;;
57465;SDS011;67033;44.984;20.068;2023-04-06T12:41:20;11.10;;;7.40;;
57465;SDS011;67033;44.984;20.068;2023-04-06T12:43:46;9.55;;;6.95;;
57465;SDS011;67033;44.984;20.068;2023-04-06T12:46:14;10.77;;;6.50;;
57465;SDS011;67033;44.984;20.068;2023-04-06T12:48:40;17.80;;;6.80;;
57465;SDS011;67033;44.984;20.068;2023-04-06T12:51:06;9.38;;;6.97;;
57465;SDS011;67033;44.984;20.068;2023-04-06T12:53:33;11.25;;;7.63;;
57465;SDS011;67033;44.984;20.068;2023-04-06T12:56:00;14.45;;;7.07;;
57465;SDS011;67033;44.984;20.068;2023-04-06T12:58:26;9.60;;;6.63;;
57465;SDS011;67033;44.984;20.068;2023-04-06T13:00:53;16.75;;;8.77;;
57465;SDS011;67033;44.984;20.068;2023-04-06T13:03:20;14.55;;;7.72;;
57465;SDS011;67033;44.984;20.068;2023-04-06T13:05:48;12.18;;;6.97;;
57465;SDS011;67033;44.984;20.068;2023-04-06T13:08:15;18.88;;;8.32;;
57465;SDS011;67033;44.984;20.068;2023-04-06T13:10:46;15.05;;;9.63;;
57465;SDS011;67033;44.984;20.068;2023-04-06T13:13:16;16.27;;;9.55;;
57465;SDS011;67033;44.984;20.068;2023-04-06T13:15:42;15.10;;;9.35;;
57465;SDS011;67033;44.984;20.068;2023-04-06T13:18:10;15.65;;;9.95;;
57465;SDS011;67033;44.984;20.068;2023-04-06T13:20:36;14.68;;;8.75;;
57465;SDS011;67033;44.984;20.068;2023-04-06T13:23:02;14.95;;;8.73;;
57465;SDS011;67033;44.984;20.068;2023-04-06T13:25:29;13.10;;;8.98;;
57465;SDS011;67033;44.984;20.068;2023-04-06T13:27:55;16.65;;;9.18;;
57465;SDS011;67033;44.984;20.068;2023-04-06T13:30:21;14.43;;;8.32;;
57465;SDS011;67033;44.984;20.068;2023-04-06T13:32:50;15.32;;;8.38;;
57465;SDS011;67033;44.984;20.068;2023-04-06T13:35:16;9.10;;;7.18;;
57465;SDS011;67033;44.984;20.068;2023-04-06T13:37:43;14.65;;;7.30;;
57465;SDS011;67033;44.984;20.068;2023-04-06T13:40:09;12.38;;;7.40;;
57465;SDS011;67033;44.984;20.068;2023-04-06T13:42:36;10.63;;;8.10;;
57465;SDS011;67033;44.984;20.068;2023-04-06T13:45:05;11.63;;;7.78;;
57465;SDS011;67033;44.984;20.068;2023-04-06T13:47:32;12.23;;;8.00;;
57465;SDS011;67033;44.984;20.068;2023-04-06T13:49:58;14.15;;;8.07;;
57465;SDS011;67033;44.984;20.068;2023-04-06T13:52:24;26.13;;;15.70;;
57465;SDS011;67033;44.984;20.068;2023-04-06T13:54:50;18.85;;;12.00;;
57465;SDS011;67033;44.984;20.068;2023-04-06T13:57:16;17.80;;;10.93;;
57465;SDS011;67033;44.984;20.068;2023-04-06T13:59:42;12.00;;;9.52;;
57465;SDS011;67033;44.984;20.068;2023-04-06T14:02:10;12.70;;;8.67;;
57465;SDS011;67033;44.984;20.068;2023-04-06T14:04:36;12.65;;;9.30;;
57465;SDS011;67033;44.984;20.068;2023-04-06T14:07:02;12.52;;;9.25;;
57465;SDS011;67033;44.984;20.068;2023-04-06T14:09:32;15.57;;;8.65;;
57465;SDS011;67033;44.984;20.068;2023-04-06T14:11:57;16.52;;;9.25;;
57465;SDS011;67033;44.984;20.068;2023-04-06T14:14:23;12.80;;;8.32;;
57465;SDS011;67033;44.984;20.068;2023-04-06T14:16:49;15.70;;;9.15;;
57465;SDS011;67033;44.984;20.068;2023-04-06T14:19:16;14.85;;;9.27;;
57465;SDS011;67033;44.984;20.068;2023-04-06T14:21:46;14.63;;;8.95;;
57465;SDS011;67033;44.984;20.068;2023-04-06T14:24:12;12.63;;;8.30;;